KLM565 EVRA-EPWA
Flight info
| Callsign | KLM565 |
|---|---|
| Flight time | 0h 58m |
| Altitude | 32000 |
| Route | BERIL DCT IRZUK DCT BOKSU M857 GERVI P851 NEPOX |
| Aircraft | B738/M-SDE2E3FGHIRWXY/LB1 |
Departure
| Time | 2026-05-04 17:53 |
|---|---|
| Airport | Riga International Airport (EVRA) |
Arrival
| Time | 2026-05-04 18:51 |
|---|---|
| Airport | Warsaw Chopin Airport (EPWA) |
| Time | Latitude | Longitude | Altitude | Speed | Heading |
|---|---|---|---|---|---|
| 2026-05-04 17:32 | 56.92289 | 23.97681 | 42 ft | 0 kts | 185° |
| 2026-05-04 17:48 | 56.92294 | 23.97682 | 42 ft | 6 kts | 186° |
| 2026-05-04 17:48 | 56.92329 | 23.97699 | 42 ft | 4 kts | 214° |
| 2026-05-04 17:49 | 56.92349 | 23.97743 | 42 ft | 2 kts | 259° |
| 2026-05-04 17:49 | 56.92349 | 23.97744 | 42 ft | 0 kts | 261° |
| 2026-05-04 17:49 | 56.92348 | 23.97733 | 42 ft | 4 kts | 261° |
| 2026-05-04 17:49 | 56.92349 | 23.97631 | 42 ft | 12 kts | 274° |
| 2026-05-04 17:50 | 56.92396 | 23.97521 | 42 ft | 13 kts | 356° |
| 2026-05-04 17:50 | 56.92517 | 23.97539 | 42 ft | 22 kts | 5° |
| 2026-05-04 17:50 | 56.92680 | 23.97565 | 42 ft | 23 kts | 5° |
| 2026-05-04 17:50 | 56.92831 | 23.97589 | 42 ft | 23 kts | 5° |
| 2026-05-04 17:51 | 56.92983 | 23.97615 | 42 ft | 20 kts | 5° |
| 2026-05-04 17:51 | 56.93123 | 23.97635 | 42 ft | 22 kts | 355° |
| 2026-05-04 17:51 | 56.93265 | 23.97579 | 42 ft | 19 kts | 0° |
| 2026-05-04 17:51 | 56.93401 | 23.97592 | 42 ft | 18 kts | 1° |
| 2026-05-04 17:52 | 56.93486 | 23.97493 | 42 ft | 13 kts | 287° |
| 2026-05-04 17:52 | 56.93477 | 23.97323 | 42 ft | 16 kts | 223° |
| 2026-05-04 17:52 | 56.93369 | 23.97285 | 42 ft | 20 kts | 185° |
| 2026-05-04 17:52 | 56.93053 | 23.97227 | 42 ft | 84 kts | 185° |
| 2026-05-04 17:53 | 56.92221 | 23.97087 | 46 ft | 157 kts | 187° |
| 2026-05-04 17:53 | 56.91021 | 23.96909 | 680 ft | 174 kts | 186° |
| 2026-05-04 17:53 | 56.89856 | 23.96782 | 1808 ft | 170 kts | 188° |
| 2026-05-04 17:53 | 56.88607 | 23.96668 | 2403 ft | 190 kts | 188° |
| 2026-05-04 17:54 | 56.87199 | 23.96542 | 2878 ft | 213 kts | 187° |
| 2026-05-04 17:54 | 56.85693 | 23.96190 | 3525 ft | 223 kts | 202° |
| 2026-05-04 17:54 | 56.84351 | 23.94824 | 4376 ft | 222 kts | 225° |
| 2026-05-04 17:54 | 56.83337 | 23.92645 | 5128 ft | 232 kts | 238° |
| 2026-05-04 17:55 | 56.82404 | 23.90166 | 5901 ft | 242 kts | 239° |
| 2026-05-04 17:55 | 56.81414 | 23.87637 | 6833 ft | 246 kts | 238° |
| 2026-05-04 17:55 | 56.80374 | 23.85131 | 7779 ft | 251 kts | 237° |
| 2026-05-04 17:55 | 56.79286 | 23.82588 | 8740 ft | 253 kts | 237° |
| 2026-05-04 17:56 | 56.78207 | 23.80071 | 9660 ft | 256 kts | 237° |
| 2026-05-04 17:56 | 56.77101 | 23.77517 | 10556 ft | 260 kts | 236° |
| 2026-05-04 17:56 | 56.75866 | 23.74971 | 11243 ft | 274 kts | 232° |
| 2026-05-04 17:56 | 56.74496 | 23.72360 | 11631 ft | 295 kts | 231° |
| 2026-05-04 17:57 | 56.73010 | 23.69609 | 12039 ft | 314 kts | 230° |
| 2026-05-04 17:57 | 56.71466 | 23.66743 | 12731 ft | 321 kts | 230° |
| 2026-05-04 17:57 | 56.69902 | 23.63831 | 13530 ft | 325 kts | 230° |
| 2026-05-04 17:57 | 56.68308 | 23.60856 | 14327 ft | 329 kts | 231° |
| 2026-05-04 17:58 | 56.66710 | 23.57870 | 15118 ft | 332 kts | 231° |
| 2026-05-04 17:58 | 56.65091 | 23.54842 | 15848 ft | 336 kts | 231° |
| 2026-05-04 17:58 | 56.63452 | 23.51776 | 16575 ft | 340 kts | 231° |
| 2026-05-04 17:58 | 56.61796 | 23.48679 | 17279 ft | 344 kts | 231° |
| 2026-05-04 17:59 | 56.60182 | 23.45487 | 17965 ft | 346 kts | 234° |
| 2026-05-04 17:59 | 56.58561 | 23.42233 | 18669 ft | 353 kts | 226° |
| 2026-05-04 17:59 | 56.54788 | 23.39088 | 20051 ft | 373 kts | 198° |
| 2026-05-04 18:00 | 56.52129 | 23.38849 | 20582 ft | 391 kts | 186° |
| 2026-05-04 18:00 | 56.49403 | 23.39168 | 21167 ft | 396 kts | 184° |
| 2026-05-04 18:00 | 56.46644 | 23.39657 | 21750 ft | 403 kts | 181° |
| 2026-05-04 18:00 | 56.42928 | 23.40672 | 22484 ft | 410 kts | 179° |
| 2026-05-04 18:01 | 56.41026 | 23.41224 | 22830 ft | 413 kts | 179° |
| 2026-05-04 18:01 | 56.38166 | 23.41818 | 23303 ft | 411 kts | 186° |
| 2026-05-04 18:01 | 56.35338 | 23.41761 | 23930 ft | 402 kts | 193° |
| 2026-05-04 18:02 | 56.29823 | 23.40251 | 24960 ft | 401 kts | 199° |
| 2026-05-04 18:02 | 56.27072 | 23.39301 | 25396 ft | 405 kts | 199° |
| 2026-05-04 18:02 | 56.24298 | 23.38338 | 25838 ft | 408 kts | 199° |
| 2026-05-04 18:02 | 56.21485 | 23.37360 | 26049 ft | 418 kts | 199° |
| 2026-05-04 18:03 | 56.18621 | 23.36364 | 26417 ft | 422 kts | 199° |
| 2026-05-04 18:03 | 56.15739 | 23.35362 | 26828 ft | 425 kts | 199° |
| 2026-05-04 18:03 | 56.12868 | 23.34363 | 27221 ft | 428 kts | 199° |
| 2026-05-04 18:03 | 56.09895 | 23.33330 | 27613 ft | 431 kts | 199° |
| 2026-05-04 18:04 | 56.06945 | 23.32306 | 27996 ft | 434 kts | 199° |
| 2026-05-04 18:04 | 56.03930 | 23.31259 | 28282 ft | 439 kts | 199° |
| 2026-05-04 18:04 | 55.97876 | 23.29141 | 29134 ft | 441 kts | 199° |
| 2026-05-04 18:05 | 55.94876 | 23.28095 | 29636 ft | 439 kts | 199° |
| 2026-05-04 18:05 | 55.91849 | 23.27042 | 30128 ft | 437 kts | 199° |
| 2026-05-04 18:05 | 55.88974 | 23.26044 | 31509 ft | 411 kts | 199° |
| 2026-05-04 18:05 | 55.86160 | 23.25069 | 31791 ft | 415 kts | 199° |
| 2026-05-04 18:06 | 55.80413 | 23.23085 | 31872 ft | 419 kts | 199° |
| 2026-05-04 18:06 | 55.74692 | 23.21117 | 31876 ft | 415 kts | 199° |
| 2026-05-04 18:07 | 55.69006 | 23.19167 | 31876 ft | 415 kts | 199° |
| 2026-05-04 18:07 | 55.63322 | 23.17224 | 31876 ft | 414 kts | 198° |
| 2026-05-04 18:08 | 55.57817 | 23.15348 | 31875 ft | 414 kts | 198° |
| 2026-05-04 18:08 | 55.52168 | 23.13417 | 31876 ft | 414 kts | 198° |
| 2026-05-04 18:09 | 55.40870 | 23.09588 | 31876 ft | 413 kts | 198° |
| 2026-05-04 18:10 | 55.35243 | 23.07698 | 31876 ft | 412 kts | 197° |
| 2026-05-04 18:10 | 55.29606 | 23.05809 | 31876 ft | 412 kts | 197° |
| 2026-05-04 18:11 | 55.23918 | 23.04074 | 31875 ft | 416 kts | 193° |
| 2026-05-04 18:11 | 55.18088 | 23.03782 | 31876 ft | 422 kts | 186° |
| 2026-05-04 18:12 | 55.12228 | 23.03942 | 31876 ft | 421 kts | 186° |
| 2026-05-04 18:12 | 55.06376 | 23.04095 | 31876 ft | 422 kts | 186° |
| 2026-05-04 18:13 | 55.00516 | 23.04242 | 31876 ft | 422 kts | 185° |
| 2026-05-04 18:14 | 54.91734 | 23.04457 | 31876 ft | 421 kts | 186° |
| 2026-05-04 18:14 | 54.85876 | 23.04599 | 31876 ft | 422 kts | 186° |
| 2026-05-04 18:15 | 54.74097 | 23.04881 | 31876 ft | 423 kts | 186° |
| 2026-05-04 18:16 | 54.68228 | 23.05021 | 31876 ft | 425 kts | 186° |
| 2026-05-04 18:16 | 54.62247 | 23.05163 | 31875 ft | 433 kts | 186° |
| 2026-05-04 18:17 | 54.53175 | 23.05378 | 31876 ft | 434 kts | 184° |
| 2026-05-04 18:18 | 54.44102 | 23.05590 | 31876 ft | 438 kts | 184° |
| 2026-05-04 18:18 | 54.37964 | 23.05733 | 31876 ft | 439 kts | 184° |
| 2026-05-04 18:19 | 54.28972 | 23.04278 | 31876 ft | 431 kts | 200° |
| 2026-05-04 18:19 | 54.23323 | 23.00902 | 31876 ft | 430 kts | 206° |
| 2026-05-04 18:20 | 54.17708 | 22.97234 | 31876 ft | 431 kts | 202° |
| 2026-05-04 18:20 | 54.12170 | 22.93557 | 31876 ft | 427 kts | 210° |
| 2026-05-04 18:21 | 54.06816 | 22.89123 | 31876 ft | 429 kts | 210° |
| 2026-05-04 18:21 | 54.01458 | 22.84656 | 31876 ft | 429 kts | 210° |
| 2026-05-04 18:22 | 53.96096 | 22.80203 | 31876 ft | 430 kts | 210° |
| 2026-05-04 18:22 | 53.90666 | 22.75709 | 31876 ft | 434 kts | 210° |
| 2026-05-04 18:23 | 53.85251 | 22.71242 | 31878 ft | 432 kts | 210° |
| 2026-05-04 18:23 | 53.81381 | 22.68055 | 31879 ft | 430 kts | 211° |
| 2026-05-04 18:24 | 53.76040 | 22.63596 | 31878 ft | 431 kts | 210° |
| 2026-05-04 18:24 | 53.70623 | 22.59104 | 31879 ft | 430 kts | 210° |
| 2026-05-04 18:25 | 53.65271 | 22.54694 | 31883 ft | 430 kts | 210° |
| 2026-05-04 18:25 | 53.59909 | 22.50295 | 31882 ft | 429 kts | 210° |
| 2026-05-04 18:26 | 53.54556 | 22.45922 | 31886 ft | 428 kts | 210° |
| 2026-05-04 18:26 | 53.51878 | 22.43741 | 31731 ft | 426 kts | 210° |
| 2026-05-04 18:26 | 53.49194 | 22.41557 | 31328 ft | 418 kts | 210° |
| 2026-05-04 18:27 | 53.46605 | 22.39454 | 30821 ft | 415 kts | 210° |
| 2026-05-04 18:27 | 53.44014 | 22.37354 | 30315 ft | 412 kts | 211° |
| 2026-05-04 18:27 | 53.41475 | 22.35297 | 29829 ft | 409 kts | 211° |
| 2026-05-04 18:27 | 53.38905 | 22.33219 | 29349 ft | 405 kts | 211° |
| 2026-05-04 18:28 | 53.36378 | 22.31178 | 28873 ft | 401 kts | 211° |
| 2026-05-04 18:28 | 53.33886 | 22.29168 | 28402 ft | 397 kts | 211° |
| 2026-05-04 18:28 | 53.31406 | 22.27171 | 27934 ft | 393 kts | 211° |
| 2026-05-04 18:28 | 53.28978 | 22.25217 | 27469 ft | 389 kts | 211° |
| 2026-05-04 18:29 | 53.26547 | 22.23263 | 27003 ft | 386 kts | 211° |
| 2026-05-04 18:29 | 53.24150 | 22.21340 | 26543 ft | 382 kts | 211° |
| 2026-05-04 18:29 | 53.21779 | 22.19439 | 26088 ft | 378 kts | 211° |
| 2026-05-04 18:29 | 53.19390 | 22.17527 | 25627 ft | 375 kts | 211° |
| 2026-05-04 18:30 | 53.14758 | 22.13826 | 24731 ft | 368 kts | 211° |
| 2026-05-04 18:30 | 53.12453 | 22.11988 | 24285 ft | 365 kts | 211° |
| 2026-05-04 18:30 | 53.10173 | 22.10172 | 23841 ft | 361 kts | 210° |
| 2026-05-04 18:31 | 53.07918 | 22.08378 | 23401 ft | 358 kts | 211° |
| 2026-05-04 18:31 | 53.05653 | 22.06578 | 22956 ft | 356 kts | 211° |
| 2026-05-04 18:31 | 53.03425 | 22.04808 | 22518 ft | 353 kts | 210° |
| 2026-05-04 18:31 | 53.01214 | 22.03055 | 22069 ft | 352 kts | 209° |
| 2026-05-04 18:32 | 52.99013 | 22.01312 | 21629 ft | 351 kts | 209° |
| 2026-05-04 18:32 | 52.96817 | 21.99575 | 21193 ft | 350 kts | 209° |
| 2026-05-04 18:32 | 52.94622 | 21.97841 | 20761 ft | 349 kts | 209° |
| 2026-05-04 18:32 | 52.92439 | 21.96117 | 20330 ft | 347 kts | 208° |
| 2026-05-04 18:33 | 52.90275 | 21.94410 | 19906 ft | 346 kts | 208° |
| 2026-05-04 18:33 | 52.88103 | 21.92700 | 19479 ft | 344 kts | 208° |
| 2026-05-04 18:33 | 52.85919 | 21.90981 | 19051 ft | 343 kts | 208° |
| 2026-05-04 18:33 | 52.83804 | 21.89319 | 18638 ft | 341 kts | 208° |
| 2026-05-04 18:34 | 52.81667 | 21.87641 | 18224 ft | 340 kts | 208° |
| 2026-05-04 18:34 | 52.79515 | 21.85952 | 17807 ft | 338 kts | 208° |
| 2026-05-04 18:34 | 52.77406 | 21.84300 | 17399 ft | 336 kts | 208° |
| 2026-05-04 18:34 | 52.75295 | 21.82648 | 16991 ft | 334 kts | 208° |
| 2026-05-04 18:35 | 52.73205 | 21.81013 | 16588 ft | 332 kts | 208° |
| 2026-05-04 18:35 | 52.71126 | 21.79389 | 16187 ft | 330 kts | 208° |
| 2026-05-04 18:35 | 52.69058 | 21.77776 | 15790 ft | 328 kts | 208° |
| 2026-05-04 18:35 | 52.67008 | 21.76178 | 15397 ft | 326 kts | 208° |
| 2026-05-04 18:36 | 52.64969 | 21.74590 | 15007 ft | 324 kts | 208° |
| 2026-05-04 18:36 | 52.62936 | 21.73008 | 14618 ft | 322 kts | 208° |
| 2026-05-04 18:36 | 52.60930 | 21.71449 | 14236 ft | 319 kts | 208° |
| 2026-05-04 18:36 | 52.58932 | 21.69897 | 13856 ft | 317 kts | 208° |
| 2026-05-04 18:37 | 52.56944 | 21.68355 | 13475 ft | 315 kts | 208° |
| 2026-05-04 18:37 | 52.54973 | 21.66826 | 13099 ft | 313 kts | 208° |
| 2026-05-04 18:37 | 52.53015 | 21.65310 | 12725 ft | 311 kts | 208° |
| 2026-05-04 18:37 | 52.51700 | 21.64293 | 12473 ft | 309 kts | 208° |
| 2026-05-04 18:38 | 52.49767 | 21.62798 | 12100 ft | 307 kts | 208° |
| 2026-05-04 18:38 | 52.47838 | 21.61308 | 11724 ft | 306 kts | 208° |
| 2026-05-04 18:38 | 52.45919 | 21.59827 | 11352 ft | 304 kts | 208° |
| 2026-05-04 18:38 | 52.44016 | 21.58359 | 10987 ft | 302 kts | 208° |
| 2026-05-04 18:39 | 52.42134 | 21.56910 | 10747 ft | 297 kts | 208° |
| 2026-05-04 18:39 | 52.40296 | 21.55495 | 10586 ft | 285 kts | 208° |
| 2026-05-04 18:39 | 52.38546 | 21.54149 | 10438 ft | 272 kts | 209° |
| 2026-05-04 18:39 | 52.36855 | 21.52849 | 10292 ft | 259 kts | 209° |
| 2026-05-04 18:40 | 52.35262 | 21.51625 | 10133 ft | 249 kts | 209° |
| 2026-05-04 18:40 | 52.33696 | 21.50423 | 10015 ft | 251 kts | 209° |
| 2026-05-04 18:40 | 52.32107 | 21.49204 | 9694 ft | 260 kts | 210° |
| 2026-05-04 18:40 | 52.30405 | 21.47901 | 9161 ft | 274 kts | 210° |
| 2026-05-04 18:41 | 52.28669 | 21.46594 | 8845 ft | 274 kts | 210° |
| 2026-05-04 18:41 | 52.26950 | 21.45298 | 8606 ft | 271 kts | 210° |
| 2026-05-04 18:41 | 52.25244 | 21.44010 | 8322 ft | 270 kts | 210° |
| 2026-05-04 18:41 | 52.23555 | 21.42733 | 8012 ft | 268 kts | 210° |
| 2026-05-04 18:42 | 52.22042 | 21.41589 | 7739 ft | 267 kts | 209° |
| 2026-05-04 18:42 | 52.20359 | 21.40317 | 7472 ft | 265 kts | 209° |
| 2026-05-04 18:42 | 52.18677 | 21.39045 | 7191 ft | 263 kts | 209° |
| 2026-05-04 18:42 | 52.17018 | 21.37790 | 6908 ft | 262 kts | 209° |
| 2026-05-04 18:43 | 52.15374 | 21.36547 | 6625 ft | 261 kts | 209° |
| 2026-05-04 18:43 | 52.13731 | 21.35305 | 6336 ft | 259 kts | 209° |
| 2026-05-04 18:43 | 52.12107 | 21.34077 | 6053 ft | 258 kts | 208° |
| 2026-05-04 18:43 | 52.10463 | 21.32835 | 5755 ft | 257 kts | 208° |
| 2026-05-04 18:44 | 52.08869 | 21.31631 | 5566 ft | 247 kts | 208° |
| 2026-05-04 18:44 | 52.07863 | 21.30871 | 5493 ft | 238 kts | 209° |
| 2026-05-04 18:44 | 52.05922 | 21.29406 | 5271 ft | 225 kts | 209° |
| 2026-05-04 18:44 | 52.04517 | 21.28345 | 5023 ft | 220 kts | 209° |
| 2026-05-04 18:45 | 52.03137 | 21.27302 | 4665 ft | 219 kts | 209° |
| 2026-05-04 18:45 | 52.01824 | 21.26085 | 4304 ft | 217 kts | 223° |
| 2026-05-04 18:45 | 52.00946 | 21.24166 | 4043 ft | 211 kts | 252° |
| 2026-05-04 18:45 | 52.00788 | 21.21829 | 3935 ft | 207 kts | 272° |
| 2026-05-04 18:46 | 52.00936 | 21.19534 | 3622 ft | 205 kts | 276° |
| 2026-05-04 18:46 | 52.01071 | 21.17215 | 3186 ft | 208 kts | 274° |
| 2026-05-04 18:46 | 52.01157 | 21.14885 | 3038 ft | 199 kts | 272° |
| 2026-05-04 18:46 | 52.01226 | 21.12707 | 2978 ft | 187 kts | 272° |
| 2026-05-04 18:47 | 52.01592 | 21.10756 | 2934 ft | 182 kts | 303° |
| 2026-05-04 18:47 | 52.02513 | 21.09385 | 3000 ft | 178 kts | 321° |
| 2026-05-04 18:47 | 52.03525 | 21.08256 | 2949 ft | 177 kts | 323° |
| 2026-05-04 18:47 | 52.04566 | 21.07227 | 2786 ft | 175 kts | 326° |
| 2026-05-04 18:48 | 52.05617 | 21.06279 | 2535 ft | 171 kts | 327° |
| 2026-05-04 18:48 | 52.06641 | 21.05377 | 2315 ft | 163 kts | 327° |
| 2026-05-04 18:48 | 52.07621 | 21.04521 | 2093 ft | 158 kts | 327° |
| 2026-05-04 18:48 | 52.08560 | 21.03702 | 1906 ft | 151 kts | 328° |
| 2026-05-04 18:49 | 52.09482 | 21.02899 | 1691 ft | 149 kts | 329° |
| 2026-05-04 18:49 | 52.10399 | 21.02100 | 1492 ft | 149 kts | 329° |
| 2026-05-04 18:49 | 52.11318 | 21.01299 | 1298 ft | 151 kts | 329° |
| 2026-05-04 18:49 | 52.12242 | 21.00494 | 1097 ft | 151 kts | 330° |
| 2026-05-04 18:50 | 52.13168 | 20.99686 | 895 ft | 151 kts | 330° |
| 2026-05-04 18:50 | 52.14089 | 20.98885 | 702 ft | 150 kts | 331° |
| 2026-05-04 18:50 | 52.15021 | 20.98085 | 496 ft | 151 kts | 330° |
| 2026-05-04 18:50 | 52.15935 | 20.97287 | 373 ft | 146 kts | 330° |
| 2026-05-04 18:51 | 52.16726 | 20.96585 | 369 ft | 91 kts | 330° |
| 2026-05-04 18:51 | 52.17058 | 20.96299 | 369 ft | 34 kts | 343° |
| 2026-05-04 18:51 | 52.17265 | 20.96248 | 369 ft | 19 kts | 1° |
| 2026-05-04 18:51 | 52.17330 | 20.96251 | 369 ft | 6 kts | 4° |
| 2026-05-04 18:52 | 52.17352 | 20.96255 | 369 ft | 0 kts | 9° |
| 2026-05-04 18:52 | 52.17366 | 20.96260 | 369 ft | 7 kts | 17° |
| 2026-05-04 18:52 | 52.17425 | 20.96369 | 369 ft | 16 kts | 61° |
| 2026-05-04 18:53 | 52.17467 | 20.96517 | 369 ft | 13 kts | 88° |
| 2026-05-04 18:53 | 52.17401 | 20.96628 | 369 ft | 17 kts | 151° |
| 2026-05-04 18:53 | 52.17284 | 20.96732 | 369 ft | 21 kts | 151° |
| 2026-05-04 18:53 | 52.17169 | 20.96833 | 369 ft | 16 kts | 151° |
| 2026-05-04 18:54 | 52.17087 | 20.96906 | 369 ft | 10 kts | 142° |
| 2026-05-04 18:54 | 52.17080 | 20.96990 | 369 ft | 8 kts | 72° |
| 2026-05-04 18:54 | 52.17094 | 20.97067 | 369 ft | 0 kts | 75° |